sensor_id;sensor_type;location;lat;lon;timestamp;pressure;altitude;pressure_sealevel;temperature;humidity
21826;BME280;11075;47.944;11.776;2023-07-31T00:01:45;94999.06;;;5.31;78.12
21826;BME280;11075;47.944;11.776;2023-07-31T00:04:11;94998.47;;;5.34;75.84
21826;BME280;11075;47.944;11.776;2023-07-31T00:06:38;94988.16;;;5.00;78.92
21826;BME280;11075;47.944;11.776;2023-07-31T00:09:06;94993.94;;;5.49;75.40
21826;BME280;11075;47.944;11.776;2023-07-31T00:11:32;94994.91;;;5.25;77.11
21826;BME280;11075;47.944;11.776;2023-07-31T00:13:59;94995.44;;;5.55;76.58
21826;BME280;11075;47.944;11.776;2023-07-31T00:16:26;94989.28;;;5.68;74.88
21826;BME280;11075;47.944;11.776;2023-07-31T00:18:53;94985.06;;;5.53;77.36
21826;BME280;11075;47.944;11.776;2023-07-31T00:21:20;94978.44;;;4.91;80.52
21826;BME280;11075;47.944;11.776;2023-07-31T00:23:47;94976.91;;;5.31;77.71
21826;BME280;11075;47.944;11.776;2023-07-31T00:26:14;94974.06;;;4.49;83.91
21826;BME280;11075;47.944;11.776;2023-07-31T00:28:41;94967.16;;;4.80;82.35
21826;BME280;11075;47.944;11.776;2023-07-31T00:31:07;94984.03;;;4.05;86.34
21826;BME280;11075;47.944;11.776;2023-07-31T00:33:35;94973.09;;;4.07;86.79
21826;BME280;11075;47.944;11.776;2023-07-31T00:36:02;94979.78;;;3.62;88.53
21826;BME280;11075;47.944;11.776;2023-07-31T00:38:29;94979.84;;;3.99;86.86
21826;BME280;11075;47.944;11.776;2023-07-31T00:40:56;94973.25;;;4.48;82.92
21826;BME280;11075;47.944;11.776;2023-07-31T00:43:24;94968.03;;;4.76;79.11
21826;BME280;11075;47.944;11.776;2023-07-31T00:45:51;94970.63;;;4.11;84.11
21826;BME280;11075;47.944;11.776;2023-07-31T00:48:18;94970.56;;;3.54;91.01
21826;BME280;11075;47.944;11.776;2023-07-31T00:50:45;94968.56;;;3.65;91.33
21826;BME280;11075;47.944;11.776;2023-07-31T00:53:13;94965.38;;;3.87;88.09
21826;BME280;11075;47.944;11.776;2023-07-31T00:55:40;94965.78;;;4.31;86.29
21826;BME280;11075;47.944;11.776;2023-07-31T00:58:07;94969.34;;;4.08;87.57
21826;BME280;11075;47.944;11.776;2023-07-31T01:00:34;94963.53;;;4.38;85.84
21826;BME280;11075;47.944;11.776;2023-07-31T01:03:00;94964.44;;;4.66;84.08
21826;BME280;11075;47.944;11.776;2023-07-31T01:05:52;94959.25;;;3.62;91.59
21826;BME280;11075;47.944;11.776;2023-07-31T01:11:05;94954.91;;;3.71;91.94
21826;BME280;11075;47.944;11.776;2023-07-31T01:13:35;94952.84;;;4.06;88.61
21826;BME280;11075;47.944;11.776;2023-07-31T01:16:02;94944.31;;;3.66;89.79
21826;BME280;11075;47.944;11.776;2023-07-31T01:18:29;94944.28;;;3.48;92.44
21826;BME280;11075;47.944;11.776;2023-07-31T01:21:34;94938.81;;;3.58;91.51
21826;BME280;11075;47.944;11.776;2023-07-31T01:26:27;94942.59;;;4.13;89.04
21826;BME280;11075;47.944;11.776;2023-07-31T01:31:53;94928.97;;;3.96;87.35
21826;BME280;11075;47.944;11.776;2023-07-31T01:34:22;94929.81;;;3.54;91.73
21826;BME280;11075;47.944;11.776;2023-07-31T01:36:49;94934.06;;;3.55;93.09
21826;BME280;11075;47.944;11.776;2023-07-31T01:39:16;94930.59;;;4.29;87.83
21826;BME280;11075;47.944;11.776;2023-07-31T01:41:43;94926.75;;;4.03;88.70
21826;BME280;11075;47.944;11.776;2023-07-31T01:44:10;94924.63;;;4.19;87.41
21826;BME280;11075;47.944;11.776;2023-07-31T01:46:36;94927.94;;;4.29;88.33
21826;BME280;11075;47.944;11.776;2023-07-31T01:49:05;94916.91;;;4.68;83.37
21826;BME280;11075;47.944;11.776;2023-07-31T01:51:32;94921.75;;;4.66;84.42
21826;BME280;11075;47.944;11.776;2023-07-31T01:54:01;94924.19;;;4.30;87.07
21826;BME280;11075;47.944;11.776;2023-07-31T01:56:28;94917.72;;;4.50;86.18
21826;BME280;11075;47.944;11.776;2023-07-31T01:58:55;94911.59;;;4.82;82.68
21826;BME280;11075;47.944;11.776;2023-07-31T02:01:21;94918.50;;;4.83;84.08
21826;BME280;11075;47.944;11.776;2023-07-31T02:03:49;94911.50;;;4.55;86.53
21826;BME280;11075;47.944;11.776;2023-07-31T02:06:16;94907.16;;;4.59;83.92
21826;BME280;11075;47.944;11.776;2023-07-31T02:08:42;94901.88;;;4.73;84.08
21826;BME280;11075;47.944;11.776;2023-07-31T02:11:12;94909.41;;;4.98;82.03
21826;BME280;11075;47.944;11.776;2023-07-31T02:13:38;94917.00;;;4.45;86.08
21826;BME280;11075;47.944;11.776;2023-07-31T02:16:06;94910.69;;;4.73;86.03
21826;BME280;11075;47.944;11.776;2023-07-31T02:18:33;94922.28;;;4.96;85.29
21826;BME280;11075;47.944;11.776;2023-07-31T02:21:01;94909.13;;;4.86;84.41
21826;BME280;11075;47.944;11.776;2023-07-31T02:23:27;94905.66;;;4.53;84.66
21826;BME280;11075;47.944;11.776;2023-07-31T02:25:54;94902.00;;;4.95;82.62
21826;BME280;11075;47.944;11.776;2023-07-31T02:28:21;94898.31;;;4.77;85.94
21826;BME280;11075;47.944;11.776;2023-07-31T02:30:50;94899.03;;;4.50;85.62
21826;BME280;11075;47.944;11.776;2023-07-31T02:33:17;94902.88;;;4.77;84.74
21826;BME280;11075;47.944;11.776;2023-07-31T02:35:45;94895.06;;;5.08;81.71
21826;BME280;11075;47.944;11.776;2023-07-31T02:38:12;94895.56;;;5.10;80.96
21826;BME280;11075;47.944;11.776;2023-07-31T02:40:40;94891.91;;;5.19;80.73
21826;BME280;11075;47.944;11.776;2023-07-31T02:43:08;94887.66;;;5.18;80.55
21826;BME280;11075;47.944;11.776;2023-07-31T02:45:35;94886.66;;;5.00;82.06
21826;BME280;11075;47.944;11.776;2023-07-31T02:48:02;94889.84;;;4.89;83.52
21826;BME280;11075;47.944;11.776;2023-07-31T02:50:29;94887.38;;;5.06;82.54
21826;BME280;11075;47.944;11.776;2023-07-31T02:52:56;94892.00;;;4.87;84.95
21826;BME280;11075;47.944;11.776;2023-07-31T02:55:23;94891.38;;;4.62;89.55
21826;BME280;11075;47.944;11.776;2023-07-31T02:57:50;94887.94;;;4.76;85.25
21826;BME280;11075;47.944;11.776;2023-07-31T03:00:20;94866.88;;;5.01;81.42
21826;BME280;11075;47.944;11.776;2023-07-31T03:02:46;94872.53;;;4.40;88.36
21826;BME280;11075;47.944;11.776;2023-07-31T03:05:13;94878.41;;;4.23;88.19
21826;BME280;11075;47.944;11.776;2023-07-31T03:07:41;94873.72;;;4.34;87.97
21826;BME280;11075;47.944;11.776;2023-07-31T03:10:08;94871.28;;;4.19;87.81
21826;BME280;11075;47.944;11.776;2023-07-31T03:12:35;94870.94;;;3.74;92.88
21826;BME280;11075;47.944;11.776;2023-07-31T03:15:02;94876.22;;;4.12;89.87
21826;BME280;11075;47.944;11.776;2023-07-31T03:17:29;94875.59;;;4.33;87.70
21826;BME280;11075;47.944;11.776;2023-07-31T03:19:56;94875.63;;;4.15;89.77
21826;BME280;11075;47.944;11.776;2023-07-31T03:22:23;94875.78;;;4.37;86.89
21826;BME280;11075;47.944;11.776;2023-07-31T03:24:50;94870.03;;;3.97;91.70
21826;BME280;11075;47.944;11.776;2023-07-31T03:27:17;94863.00;;;4.20;90.53
21826;BME280;11075;47.944;11.776;2023-07-31T03:32:25;94868.75;;;4.74;86.10
21826;BME280;11075;47.944;11.776;2023-07-31T03:34:59;94862.03;;;4.62;87.32
21826;BME280;11075;47.944;11.776;2023-07-31T03:37:38;94858.78;;;4.00;92.77
21826;BME280;11075;47.944;11.776;2023-07-31T03:43:28;94872.94;;;4.47;88.27
21826;BME280;11075;47.944;11.776;2023-07-31T03:46:01;94872.38;;;4.18;92.36
21826;BME280;11075;47.944;11.776;2023-07-31T03:48:30;94877.56;;;4.42;89.48
21826;BME280;11075;47.944;11.776;2023-07-31T03:50:56;94879.28;;;4.51;88.84
21826;BME280;11075;47.944;11.776;2023-07-31T03:53:23;94875.94;;;4.59;87.62
21826;BME280;11075;47.944;11.776;2023-07-31T03:55:50;94882.44;;;4.53;88.24
21826;BME280;11075;47.944;11.776;2023-07-31T03:58:17;94878.28;;;4.47;89.72
21826;BME280;11075;47.944;11.776;2023-07-31T04:00:45;94877.50;;;4.60;89.02
21826;BME280;11075;47.944;11.776;2023-07-31T04:03:12;94881.28;;;4.27;90.77
21826;BME280;11075;47.944;11.776;2023-07-31T04:05:39;94878.88;;;4.44;89.97
21826;BME280;11075;47.944;11.776;2023-07-31T04:08:06;94875.72;;;4.56;88.63
21826;BME280;11075;47.944;11.776;2023-07-31T04:10:33;94881.00;;;4.61;88.71
21826;BME280;11075;47.944;11.776;2023-07-31T04:13:00;94878.16;;;4.85;86.35
21826;BME280;11075;47.944;11.776;2023-07-31T04:15:27;94881.03;;;4.75;87.01
21826;BME280;11075;47.944;11.776;2023-07-31T04:17:54;94887.09;;;4.48;89.50
21826;BME280;11075;47.944;11.776;2023-07-31T04:20:21;94878.41;;;4.23;91.49
21826;BME280;11075;47.944;11.776;2023-07-31T04:22:48;94881.53;;;4.12;91.57
21826;BME280;11075;47.944;11.776;2023-07-31T04:25:15;94878.38;;;4.10;92.61
21826;BME280;11075;47.944;11.776;2023-07-31T04:27:42;94875.16;;;4.26;91.61
21826;BME280;11075;47.944;11.776;2023-07-31T04:30:09;94882.66;;;4.57;89.18
21826;BME280;11075;47.944;11.776;2023-07-31T04:32:36;94879.72;;;4.26;92.72
21826;BME280;11075;47.944;11.776;2023-07-31T04:35:03;94879.41;;;3.95;96.42
21826;BME280;11075;47.944;11.776;2023-07-31T04:37:30;94885.69;;;4.50;91.94
21826;BME280;11075;47.944;11.776;2023-07-31T04:39:57;94876.53;;;4.56;90.39
21826;BME280;11075;47.944;11.776;2023-07-31T04:42:23;94878.06;;;4.44;90.99
21826;BME280;11075;47.944;11.776;2023-07-31T04:44:50;94870.22;;;4.66;88.47
21826;BME280;11075;47.944;11.776;2023-07-31T04:47:19;94869.59;;;4.55;91.73
21826;BME280;11075;47.944;11.776;2023-07-31T04:49:46;94875.00;;;4.96;85.37
21826;BME280;11075;47.944;11.776;2023-07-31T04:52:13;94865.69;;;5.21;83.02
21826;BME280;11075;47.944;11.776;2023-07-31T04:54:40;94872.03;;;5.25;83.43
21826;BME280;11075;47.944;11.776;2023-07-31T04:57:07;94868.34;;;5.35;83.20
21826;BME280;11075;47.944;11.776;2023-07-31T04:59:33;94863.38;;;5.56;81.92
21826;BME280;11075;47.944;11.776;2023-07-31T05:02:00;94855.78;;;5.35;82.48
21826;BME280;11075;47.944;11.776;2023-07-31T05:04:27;94857.75;;;5.44;81.66
21826;BME280;11075;47.944;11.776;2023-07-31T05:06:54;94856.19;;;5.15;85.01
21826;BME280;11075;47.944;11.776;2023-07-31T05:09:21;94856.88;;;5.34;83.02
21826;BME280;11075;47.944;11.776;2023-07-31T05:11:48;94857.06;;;5.52;81.46
21826;BME280;11075;47.944;11.776;2023-07-31T05:14:14;94853.03;;;5.77;79.81
21826;BME280;11075;47.944;11.776;2023-07-31T05:16:42;94860.25;;;5.76;79.67
21826;BME280;11075;47.944;11.776;2023-07-31T05:19:10;94864.16;;;5.56;81.28
21826;BME280;11075;47.944;11.776;2023-07-31T05:21:36;94866.94;;;5.51;81.70
21826;BME280;11075;47.944;11.776;2023-07-31T05:24:04;94861.66;;;6.18;78.63
21826;BME280;11075;47.944;11.776;2023-07-31T05:26:31;94865.53;;;6.35;77.63
21826;BME280;11075;47.944;11.776;2023-07-31T05:28:57;94862.88;;;6.35;76.75
21826;BME280;11075;47.944;11.776;2023-07-31T05:31:25;94861.94;;;6.61;75.92
21826;BME280;11075;47.944;11.776;2023-07-31T05:33:51;94866.38;;;6.66;75.25
21826;BME280;11075;47.944;11.776;2023-07-31T05:36:18;94861.97;;;7.10;73.16
21826;BME280;11075;47.944;11.776;2023-07-31T05:38:45;94860.81;;;7.42;73.12
21826;BME280;11075;47.944;11.776;2023-07-31T05:41:12;94860.06;;;7.76;70.97
21826;BME280;11075;47.944;11.776;2023-07-31T05:43:39;94855.97;;;7.61;68.78
21826;BME280;11075;47.944;11.776;2023-07-31T05:46:06;94856.09;;;7.39;73.24
21826;BME280;11075;47.944;11.776;2023-07-31T05:48:33;94858.59;;;7.26;73.60
21826;BME280;11075;47.944;11.776;2023-07-31T05:51:03;94846.78;;;7.36;75.28
21826;BME280;11075;47.944;11.776;2023-07-31T05:53:30;94848.47;;;7.23;68.54
21826;BME280;11075;47.944;11.776;2023-07-31T05:55:57;94846.97;;;7.57;69.96
21826;BME280;11075;47.944;11.776;2023-07-31T05:58:24;94847.91;;;7.61;70.50
21826;BME280;11075;47.944;11.776;2023-07-31T06:00:50;94852.66;;;8.16;72.58
21826;BME280;11075;47.944;11.776;2023-07-31T06:03:17;94850.59;;;7.96;68.81
21826;BME280;11075;47.944;11.776;2023-07-31T06:05:44;94842.56;;;7.61;65.56
21826;BME280;11075;47.944;11.776;2023-07-31T06:08:11;94838.75;;;8.31;66.72
21826;BME280;11075;47.944;11.776;2023-07-31T06:10:38;94843.34;;;8.13;64.46
21826;BME280;11075;47.944;11.776;2023-07-31T06:13:05;94838.59;;;7.93;64.57
21826;BME280;11075;47.944;11.776;2023-07-31T06:15:32;94838.28;;;8.20;62.88
21826;BME280;11075;47.944;11.776;2023-07-31T06:17:59;94831.81;;;8.21;61.19
21826;BME280;11075;47.944;11.776;2023-07-31T06:20:28;94835.59;;;8.84;58.29
21826;BME280;11075;47.944;11.776;2023-07-31T06:22:55;94837.66;;;8.79;59.57
21826;BME280;11075;47.944;11.776;2023-07-31T06:25:22;94837.88;;;8.65;61.18
21826;BME280;11075;47.944;11.776;2023-07-31T06:27:49;94845.66;;;8.96;63.41
21826;BME280;11075;47.944;11.776;2023-07-31T06:30:16;94844.13;;;8.86;61.23
21826;BME280;11075;47.944;11.776;2023-07-31T06:32:43;94841.03;;;9.35;55.79
21826;BME280;11075;47.944;11.776;2023-07-31T06:35:10;94850.91;;;8.29;61.81
21826;BME280;11075;47.944;11.776;2023-07-31T06:37:36;94852.84;;;8.75;60.36
21826;BME280;11075;47.944;11.776;2023-07-31T06:40:07;94861.03;;;8.78;61.40
21826;BME280;11075;47.944;11.776;2023-07-31T06:42:35;94862.22;;;8.60;57.89
21826;BME280;11075;47.944;11.776;2023-07-31T06:45:02;94874.28;;;8.28;62.14
21826;BME280;11075;47.944;11.776;2023-07-31T06:47:29;94867.16;;;8.96;58.92
21826;BME280;11075;47.944;11.776;2023-07-31T06:49:56;94864.22;;;9.18;57.54
21826;BME280;11075;47.944;11.776;2023-07-31T06:52:23;94862.88;;;9.04;58.17
21826;BME280;11075;47.944;11.776;2023-07-31T06:55:19;94861.66;;;7.77;60.50
21826;BME280;11075;47.944;11.776;2023-07-31T06:57:47;94869.22;;;7.66;60.77
21826;BME280;11075;47.944;11.776;2023-07-31T07:00:15;94863.03;;;8.43;60.09
21826;BME280;11075;47.944;11.776;2023-07-31T07:02:43;94871.88;;;8.52;57.57
21826;BME280;11075;47.944;11.776;2023-07-31T07:05:10;94849.41;;;8.57;57.61
21826;BME280;11075;47.944;11.776;2023-07-31T07:07:37;94842.00;;;8.54;57.79
21826;BME280;11075;47.944;11.776;2023-07-31T07:10:04;94844.84;;;9.34;53.76
21826;BME280;11075;47.944;11.776;2023-07-31T07:12:32;94835.22;;;8.56;52.02
21826;BME280;11075;47.944;11.776;2023-07-31T07:14:59;94834.97;;;8.79;55.29
21826;BME280;11075;47.944;11.776;2023-07-31T07:17:28;94831.66;;;8.73;53.84
21826;BME280;11075;47.944;11.776;2023-07-31T07:19:58;94825.59;;;9.23;52.37
21826;BME280;11075;47.944;11.776;2023-07-31T07:22:26;94824.22;;;8.32;55.78
21826;BME280;11075;47.944;11.776;2023-07-31T07:24:54;94831.56;;;8.61;55.11
21826;BME280;11075;47.944;11.776;2023-07-31T07:27:21;94837.44;;;9.01;53.16
21826;BME280;11075;47.944;11.776;2023-07-31T07:29:50;94835.75;;;8.88;55.31
21826;BME280;11075;47.944;11.776;2023-07-31T07:32:18;94840.84;;;9.40;53.69
21826;BME280;11075;47.944;11.776;2023-07-31T07:34:47;94833.22;;;9.71;52.49
21826;BME280;11075;47.944;11.776;2023-07-31T07:37:14;94832.50;;;9.33;53.54
21826;BME280;11075;47.944;11.776;2023-07-31T07:39:41;94838.53;;;9.30;55.11
21826;BME280;11075;47.944;11.776;2023-07-31T07:42:08;94830.72;;;11.23;50.21
21826;BME280;11075;47.944;11.776;2023-07-31T07:44:35;94825.78;;;11.00;50.42
21826;BME280;11075;47.944;11.776;2023-07-31T07:47:02;94833.16;;;9.59;51.46
21826;BME280;11075;47.944;11.776;2023-07-31T07:49:29;94831.66;;;9.41;51.74
21826;BME280;11075;47.944;11.776;2023-07-31T07:51:56;94833.03;;;9.76;51.80
21826;BME280;11075;47.944;11.776;2023-07-31T07:54:22;94828.50;;;10.22;50.98
21826;BME280;11075;47.944;11.776;2023-07-31T07:56:49;94818.03;;;10.99;48.37
21826;BME280;11075;47.944;11.776;2023-07-31T07:59:16;94814.31;;;9.80;49.70
21826;BME280;11075;47.944;11.776;2023-07-31T08:01:43;94813.56;;;9.50;49.65
21826;BME280;11075;47.944;11.776;2023-07-31T08:04:10;94809.66;;;9.68;50.19
21826;BME280;11075;47.944;11.776;2023-07-31T08:06:37;94805.31;;;9.97;49.26
21826;BME280;11075;47.944;11.776;2023-07-31T08:09:04;94810.16;;;10.03;49.61
21826;BME280;11075;47.944;11.776;2023-07-31T08:11:33;94799.50;;;10.07;49.46
21826;BME280;11075;47.944;11.776;2023-07-31T08:14:00;94804.38;;;9.51;49.87
21826;BME280;11075;47.944;11.776;2023-07-31T08:16:27;94799.47;;;10.73;47.71
21826;BME280;11075;47.944;11.776;2023-07-31T08:18:54;94795.06;;;11.66;44.74
21826;BME280;11075;47.944;11.776;2023-07-31T08:21:21;94789.56;;;11.90;45.64
21826;BME280;11075;47.944;11.776;2023-07-31T08:23:48;94786.28;;;11.57;48.50
21826;BME280;11075;47.944;11.776;2023-07-31T08:26:16;94776.22;;;12.37;45.19
21826;BME280;11075;47.944;11.776;2023-07-31T08:28:43;94781.88;;;11.77;44.15
21826;BME280;11075;47.944;11.776;2023-07-31T08:31:10;94778.41;;;12.48;43.35
21826;BME280;11075;47.944;11.776;2023-07-31T08:33:38;94774.22;;;10.77;46.86
21826;BME280;11075;47.944;11.776;2023-07-31T08:36:06;94773.09;;;10.21;48.03
21826;BME280;11075;47.944;11.776;2023-07-31T08:38:34;94783.97;;;10.82;45.51
21826;BME280;11075;47.944;11.776;2023-07-31T08:41:03;94776.13;;;10.89;46.95
21826;BME280;11075;47.944;11.776;2023-07-31T08:43:30;94777.19;;;11.49;44.01
21826;BME280;11075;47.944;11.776;2023-07-31T08:45:58;94771.59;;;12.85;43.39
21826;BME280;11075;47.944;11.776;2023-07-31T08:48:25;94770.91;;;12.73;42.39
21826;BME280;11075;47.944;11.776;2023-07-31T08:50:52;94777.41;;;11.56;43.32
21826;BME280;11075;47.944;11.776;2023-07-31T08:53:19;94763.66;;;11.21;46.94
21826;BME280;11075;47.944;11.776;2023-07-31T08:55:48;94767.56;;;10.75;48.00
21826;BME280;11075;47.944;11.776;2023-07-31T08:58:17;94784.63;;;10.55;48.47
21826;BME280;11075;47.944;11.776;2023-07-31T09:00:46;94777.28;;;9.98;49.41
21826;BME280;11075;47.944;11.776;2023-07-31T09:03:24;94781.59;;;10.11;50.37
21826;BME280;11075;47.944;11.776;2023-07-31T09:05:53;94769.91;;;10.40;49.26
21826;BME280;11075;47.944;11.776;2023-07-31T09:08:22;94767.34;;;10.10;49.64
21826;BME280;11075;47.944;11.776;2023-07-31T09:10:48;94766.22;;;10.69;47.79
21826;BME280;11075;47.944;11.776;2023-07-31T09:13:18;94766.06;;;10.29;48.40
21826;BME280;11075;47.944;11.776;2023-07-31T09:15:45;94768.78;;;11.38;48.93
21826;BME280;11075;47.944;11.776;2023-07-31T09:18:12;94773.75;;;10.88;48.12
21826;BME280;11075;47.944;11.776;2023-07-31T09:20:43;94772.00;;;9.68;48.32
21826;BME280;11075;47.944;11.776;2023-07-31T09:23:12;94771.50;;;11.26;47.18
21826;BME280;11075;47.944;11.776;2023-07-31T09:25:43;94767.28;;;11.65;45.48
21826;BME280;11075;47.944;11.776;2023-07-31T09:28:11;94773.88;;;11.16;45.17
21826;BME280;11075;47.944;11.776;2023-07-31T09:30:50;94769.03;;;10.85;47.92
21826;BME280;11075;47.944;11.776;2023-07-31T09:33:18;94767.72;;;11.03;47.59
21826;BME280;11075;47.944;11.776;2023-07-31T09:35:46;94773.63;;;10.14;48.14
21826;BME280;11075;47.944;11.776;2023-07-31T09:38:16;94771.38;;;10.50;47.91
21826;BME280;11075;47.944;11.776;2023-07-31T09:40:49;94766.56;;;10.92;46.27
21826;BME280;11075;47.944;11.776;2023-07-31T09:43:20;94759.63;;;10.21;50.61
21826;BME280;11075;47.944;11.776;2023-07-31T09:45:48;94761.97;;;11.69;47.10
21826;BME280;11075;47.944;11.776;2023-07-31T09:48:16;94766.50;;;11.93;46.58
21826;BME280;11075;47.944;11.776;2023-07-31T09:50:48;94755.91;;;12.00;45.13
21826;BME280;11075;47.944;11.776;2023-07-31T09:53:16;94756.53;;;13.35;42.99
21826;BME280;11075;47.944;11.776;2023-07-31T09:55:43;94755.91;;;12.75;43.32
21826;BME280;11075;47.944;11.776;2023-07-31T09:58:11;94755.38;;;13.36;41.01
21826;BME280;11075;47.944;11.776;2023-07-31T10:00:39;94730.00;;;12.43;43.94
21826;BME280;11075;47.944;11.776;2023-07-31T10:03:08;94736.00;;;13.69;42.97
21826;BME280;11075;47.944;11.776;2023-07-31T10:05:46;94721.72;;;14.79;40.28
21826;BME280;11075;47.944;11.776;2023-07-31T10:08:17;94698.84;;;15.03;41.13
21826;BME280;11075;47.944;11.776;2023-07-31T10:10:45;94702.66;;;14.26;37.62
21826;BME280;11075;47.944;11.776;2023-07-31T10:13:13;94719.25;;;14.93;37.82
21826;BME280;11075;47.944;11.776;2023-07-31T10:15:41;94735.81;;;16.38;35.28
21826;BME280;11075;47.944;11.776;2023-07-31T10:18:11;94705.31;;;14.46;37.42
21826;BME280;11075;47.944;11.776;2023-07-31T10:20:40;94712.47;;;12.99;39.58
21826;BME280;11075;47.944;11.776;2023-07-31T10:23:07;94699.88;;;13.61;42.23
21826;BME280;11075;47.944;11.776;2023-07-31T10:25:35;94693.44;;;13.31;39.68
21826;BME280;11075;47.944;11.776;2023-07-31T10:28:02;94690.25;;;13.83;37.84
21826;BME280;11075;47.944;11.776;2023-07-31T10:30:30;94679.47;;;15.31;37.80
21826;BME280;11075;47.944;11.776;2023-07-31T10:32:59;94683.28;;;14.74;36.49
21826;BME280;11075;47.944;11.776;2023-07-31T10:35:27;94682.31;;;15.72;36.12
21826;BME280;11075;47.944;11.776;2023-07-31T10:37:54;94663.19;;;15.01;37.17
21826;BME280;11075;47.944;11.776;2023-07-31T10:40:26;94698.28;;;13.99;35.77
21826;BME280;11075;47.944;11.776;2023-07-31T10:42:55;94685.97;;;14.97;36.71
21826;BME280;11075;47.944;11.776;2023-07-31T10:45:37;94675.91;;;14.97;38.02
21826;BME280;11075;47.944;11.776;2023-07-31T10:48:14;94661.72;;;15.37;37.41
21826;BME280;11075;47.944;11.776;2023-07-31T10:55:50;94689.09;;;14.99;35.21
21826;BME280;11075;47.944;11.776;2023-07-31T10:58:20;94667.94;;;16.49;35.40
21826;BME280;11075;47.944;11.776;2023-07-31T11:00:55;94662.78;;;15.59;36.52
21826;BME280;11075;47.944;11.776;2023-07-31T11:03:26;94662.44;;;13.86;40.15
21826;BME280;11075;47.944;11.776;2023-07-31T11:06:03;94669.47;;;13.68;39.65
21826;BME280;11075;47.944;11.776;2023-07-31T11:08:32;94660.22;;;12.80;39.79
21826;BME280;11075;47.944;11.776;2023-07-31T11:13:33;94662.69;;;14.01;39.97
21826;BME280;11075;47.944;11.776;2023-07-31T11:16:01;94645.78;;;14.07;38.18
21826;BME280;11075;47.944;11.776;2023-07-31T11:18:28;94644.44;;;13.55;38.54
21826;BME280;11075;47.944;11.776;2023-07-31T11:20:55;94647.38;;;12.26;40.84
21826;BME280;11075;47.944;11.776;2023-07-31T11:23:22;94631.59;;;15.16;38.59
21826;BME280;11075;47.944;11.776;2023-07-31T11:25:50;94610.63;;;16.20;36.26
21826;BME280;11075;47.944;11.776;2023-07-31T11:28:18;94631.13;;;13.66;37.38
21826;BME280;11075;47.944;11.776;2023-07-31T11:30:46;94624.59;;;13.28;37.97
21826;BME280;11075;47.944;11.776;2023-07-31T11:33:13;94646.44;;;15.55;36.29
21826;BME280;11075;47.944;11.776;2023-07-31T11:35:44;94601.94;;;14.47;36.76
21826;BME280;11075;47.944;11.776;2023-07-31T11:38:21;94611.41;;;14.11;36.53
21826;BME280;11075;47.944;11.776;2023-07-31T11:40:49;94624.66;;;13.13;37.10
21826;BME280;11075;47.944;11.776;2023-07-31T11:43:17;94639.88;;;13.59;36.18
21826;BME280;11075;47.944;11.776;2023-07-31T11:45:47;94640.44;;;12.76;37.36
21826;BME280;11075;47.944;11.776;2023-07-31T11:50:52;94585.13;;;15.92;35.89
21826;BME280;11075;47.944;11.776;2023-07-31T11:53:28;94630.53;;;17.66;31.85
21826;BME280;11075;47.944;11.776;2023-07-31T11:55:57;94629.72;;;16.79;31.75
21826;BME280;11075;47.944;11.776;2023-07-31T11:58:26;94629.75;;;16.31;31.40
21826;BME280;11075;47.944;11.776;2023-07-31T12:00:53;94610.69;;;16.79;31.99
21826;BME280;11075;47.944;11.776;2023-07-31T12:03:21;94588.19;;;15.49;32.82
21826;BME280;11075;47.944;11.776;2023-07-31T12:05:49;94578.75;;;17.56;33.00
21826;BME280;11075;47.944;11.776;2023-07-31T12:08:21;94585.19;;;16.46;32.04
21826;BME280;11075;47.944;11.776;2023-07-31T12:10:53;94558.88;;;15.66;33.77
21826;BME280;11075;47.944;11.776;2023-07-31T12:13:25;94577.75;;;16.40;32.37
21826;BME280;11075;47.944;11.776;2023-07-31T12:15:58;94590.78;;;16.64;31.34
21826;BME280;11075;47.944;11.776;2023-07-31T12:18:28;94575.84;;;15.96;32.29
21826;BME280;11075;47.944;11.776;2023-07-31T12:21:00;94533.19;;;16.00;33.76
21826;BME280;11075;47.944;11.776;2023-07-31T12:23:29;94557.97;;;17.12;32.14
21826;BME280;11075;47.944;11.776;2023-07-31T12:28:27;94537.56;;;17.75;31.58
21826;BME280;11075;47.944;11.776;2023-07-31T12:31:00;94511.78;;;17.26;31.66
21826;BME280;11075;47.944;11.776;2023-07-31T12:33:32;94464.19;;;16.84;34.88
21826;BME280;11075;47.944;11.776;2023-07-31T12:36:02;94517.22;;;18.90;31.03
21826;BME280;11075;47.944;11.776;2023-07-31T12:38:30;94526.84;;;16.33;30.88
21826;BME280;11075;47.944;11.776;2023-07-31T12:40:58;94505.03;;;15.34;32.42
21826;BME280;11075;47.944;11.776;2023-07-31T12:43:25;94498.31;;;14.57;33.40
21826;BME280;11075;47.944;11.776;2023-07-31T12:45:55;94505.00;;;14.37;32.91
21826;BME280;11075;47.944;11.776;2023-07-31T12:48:29;94500.53;;;14.82;33.56
21826;BME280;11075;47.944;11.776;2023-07-31T12:50:56;94520.03;;;15.24;31.83
21826;BME280;11075;47.944;11.776;2023-07-31T12:53:23;94526.38;;;16.82;30.72
21826;BME280;11075;47.944;11.776;2023-07-31T12:55:49;94521.84;;;17.15;29.86
21826;BME280;11075;47.944;11.776;2023-07-31T12:58:17;94504.66;;;15.36;30.04
21826;BME280;11075;47.944;11.776;2023-07-31T13:00:44;94442.53;;;15.27;33.63
21826;BME280;11075;47.944;11.776;2023-07-31T13:03:11;94485.38;;;14.77;32.39
21826;BME280;11075;47.944;11.776;2023-07-31T13:05:38;94471.81;;;14.17;33.25
21826;BME280;11075;47.944;11.776;2023-07-31T13:08:05;94479.97;;;14.77;32.81
21826;BME280;11075;47.944;11.776;2023-07-31T13:10:32;94454.72;;;14.13;34.45
21826;BME280;11075;47.944;11.776;2023-07-31T13:12:59;94459.50;;;14.50;34.25
21826;BME280;11075;47.944;11.776;2023-07-31T13:15:26;94511.75;;;15.88;31.04
21826;BME280;11075;47.944;11.776;2023-07-31T13:17:54;94496.66;;;18.46;30.15
21826;BME280;11075;47.944;11.776;2023-07-31T13:20:21;94518.63;;;16.88;28.95
21826;BME280;11075;47.944;11.776;2023-07-31T13:22:48;94462.28;;;15.24;32.21
21826;BME280;11075;47.944;11.776;2023-07-31T13:25:15;94485.16;;;14.89;31.02
21826;BME280;11075;47.944;11.776;2023-07-31T13:27:42;94489.38;;;16.67;30.92